Time,TemperatureF,DewpointF,PressureIn,WindDirection,WindDirectionDegrees,WindSpeedMPH,WindSpeedGustMPH,Humidity,HourlyPrecipIn,Conditions,Clouds,dailyrainin,SoftwareType,DateUTC
2014-09-23 00:05:00,34.1,32.3,29.69,NNE,20,0.0,0.0,93,0.00,,,0.00,Wunderground v.1.15,2014-09-23 08:05:00,
2014-09-23 00:15:00,34.0,31.6,29.69,NNE,20,1.0,1.0,91,0.00,,,0.00,Wunderground v.1.15,2014-09-23 08:15:00,
2014-09-23 00:25:00,34.0,31.6,29.69,NNE,20,0.0,1.0,91,0.00,,,0.00,Wunderground v.1.15,2014-09-23 08:25:00,
2014-09-23 00:30:00,33.8,31.5,29.70,NNE,20,0.0,0.0,91,0.00,,,0.00,Wunderground v.1.15,2014-09-23 08:30:00,
2014-09-23 00:40:00,33.4,31.1,29.70,NNE,20,0.0,0.0,91,0.00,,,0.00,Wunderground v.1.15,2014-09-23 08:40:00,
2014-09-23 00:50:00,33.1,31.0,29.70,NNE,20,0.0,0.0,92,0.00,,,0.00,Wunderground v.1.15,2014-09-23 08:50:00,
2014-09-23 00:55:00,33.1,30.8,29.70,NNE,20,0.0,0.0,91,0.00,,,0.00,Wunderground v.1.15,2014-09-23 08:55:00,
2014-09-23 01:05:00,32.5,30.2,29.71,NNE,20,0.0,0.0,91,0.00,,,0.00,Wunderground v.1.15,2014-09-23 09:05:00,
2014-09-23 01:11:00,32.8,30.7,29.71,NNE,20,0.0,0.0,92,0.00,,,0.00,Wunderground v.1.15,2014-09-23 09:11:00,
2014-09-23 01:26:00,32.5,30.4,29.71,NNE,20,0.0,0.0,92,0.00,,,0.00,Wunderground v.1.15,2014-09-23 09:26:00,
2014-09-23 01:36:00,32.1,30.0,29.72,NNE,20,0.0,1.0,92,0.00,,,0.00,Wunderground v.1.15,2014-09-23 09:36:00,
2014-09-23 01:40:00,32.2,30.1,29.72,NNE,20,0.0,0.0,92,0.00,,,0.00,Wunderground v.1.15,2014-09-23 09:40:00,
2014-09-23 01:45:00,32.2,29.9,29.72,NNE,20,0.0,0.0,91,0.00,,,0.00,Wunderground v.1.15,2014-09-23 09:45:00,
2014-09-23 01:55:00,31.5,29.2,29.72,NNE,20,0.0,0.0,91,0.00,,,0.00,Wunderground v.1.15,2014-09-23 09:55:00,
2014-09-23 02:01:00,30.9,28.6,29.73,NNE,20,0.0,0.0,91,0.00,,,0.00,Wunderground v.1.15,2014-09-23 10:01:00,
2014-09-23 02:11:00,30.7,28.7,29.73,NNE,20,0.0,0.0,92,0.00,,,0.00,Wunderground v.1.15,2014-09-23 10:11:00,
2014-09-23 02:20:00,30.4,28.4,29.73,NNE,20,0.0,0.0,92,0.00,,,0.00,Wunderground v.1.15,2014-09-23 10:20:00,
2014-09-23 02:30:00,29.5,27.5,29.74,NNE,20,0.0,0.0,92,0.00,,,0.00,Wunderground v.1.15,2014-09-23 10:30:00,
2014-09-23 02:36:00,29.3,27.3,29.74,NNE,20,0.0,0.0,92,0.00,,,0.00,Wunderground v.1.15,2014-09-23 10:36:00,
2014-09-23 02:46:00,27.9,25.6,29.74,NNE,20,0.0,1.0,91,0.00,,,0.00,Wunderground v.1.15,2014-09-23 10:46:00,
2014-09-23 02:56:00,29.0,27.2,29.74,NNE,20,0.0,1.0,93,0.00,,,0.00,Wunderground v.1.15,2014-09-23 10:56:00,
2014-09-23 03:06:00,29.3,27.3,29.75,NNE,20,0.0,1.0,92,0.00,,,0.00,Wunderground v.1.15,2014-09-23 11:06:00,
2014-09-23 03:16:00,29.0,26.7,29.75,NNE,20,1.0,1.0,91,0.00,,,0.00,Wunderground v.1.15,2014-09-23 11:16:00,
2014-09-23 03:20:00,28.7,26.4,29.75,NNE,20,1.0,1.0,91,0.00,,,0.00,Wunderground v.1.15,2014-09-23 11:20:00,